Overview Statistics Trail Chart Weather Telemetry Raw packets
 

This is the latest recevied weather packets stored in our database for station/object YO6KXQ-10. If no packets are shown the sender has not sent any weather packets the latest 10 day(s).

<< 1 2 3 4 >>
Time Temp. Humidity Pressure Rain* Wind** Luminosity Snow
1777765732 15.56° C 54% 1025.6 hPa - - - -
1777764711 15.56° C 54% 1025.4 hPa - - - -
1777763691 15.56° C 54% 1025.4 hPa - - - -
1777762671 15.56° C 54% 1025.5 hPa - - - -
1777761651 15.56° C 54% 1025.7 hPa - - - -
1777760631 15.56° C 54% 1025.7 hPa - - - -
1777759610 16.11° C 54% 1025.8 hPa - - - -
1777758590 16.11° C 54% 1025.9 hPa - - - -
1777757570 16.11° C 54% 1025.9 hPa - - - -
1777756550 16.11° C 54% 1026 hPa - - - -
1777755530 16.67° C 53% 1026.1 hPa - - - -
1777754510 16.67° C 53% 1026 hPa - - - -
1777753489 17.22° C 52% 1026.1 hPa - - - -
1777752469 17.22° C 52% 1026 hPa - - - -
1777751449 17.22° C 52% 1025.9 hPa - - - -
1777750429 17.22° C 53% 1026 hPa - - - -
1777749409 17.22° C 53% 1026.1 hPa - - - -
1777748389 16.67° C 53% 1025.9 hPa - - - -
1777747369 16.67° C 54% 1025.8 hPa - - - -
1777746348 16.11° C 54% 1025.8 hPa - - - -
1777745328 15.56° C 54% 1025.6 hPa - - - -
1777744308 16.11° C 55% 1025.7 hPa - - - -
1777743288 16.11° C 55% 1025.5 hPa - - - -
1777742268 16.11° C 54% 1025.5 hPa - - - -
1777741248 16.11° C 54% 1025.5 hPa - - - -

* Rain since midnight (hover to see other rain measurements)
** Current wind speed in m/s (hover to see current wind gust speed)